AirNav   Everest Fuels
 
 1208 users online  

3IL3 Stillman Fire Heliport
Stillman Valley, Illinois, USA

GOING TO STILLMAN VALLEY?


FAA INFORMATION EFFECTIVE 25 MARCH 2021

Location

FAA Identifier: 3IL3
Lat/Long: 42-06-20.0000N 089-11-00.0000W
42-06.333333N 089-11.000000W
42.1055556,-89.1833333
(estimated)
Elevation: 720 ft. / 219 m (estimated)
Variation: 01W (1995)
Time zone: UTC -5 (UTC -6 during Standard Time)
Zip code: 61084

Heliport Operations

Heliport use: Private use. Permission required prior to landing
Activation date: 03/1998
Control tower: no
ARTCC: CHICAGO CENTER
FSS: KANKAKEE FLIGHT SERVICE STATION
Attendance: IREG
Wind indicator: lighted
Segmented circle: no
Lights: SS-SR

Heliport Communications

WX ASOS at RFD (7 nm NE): PHONE 815-484-6229
WX AWOS-3 at RPJ (14 nm S): 125.2 (815-562-2955)
WX AWOS-3 at FEP (20 nm NW): 120.525 (815-233-4472)

Nearby radio navigation aids

VOR radial/distance  VOR name  Freq  Var
RFDr173/7.2ROCKFORD VOR/DME110.8001E
PLLr058/17.4POLO VOR/DME111.2003E
JVLr184/27.4JANESVILLE VOR/DME114.3003E
DPAr287/39.3DUPAGE VOR/DME108.4002E

Heliport Services

Runway Information

Helipad H1

Dimensions: 50 x 50 ft. / 15 x 15 m
Surface: asphalt/concrete
Runway edge lights: PERI
Latitude: 42-06.333333N
Longitude: 089-11.000000W
Elevation: 720.0 ft.
Traffic pattern: leftleft

Heliport Ownership and Management from official FAA records

Ownership: Privately-owned
Owner: STILLMAN FIRE PROTECTION DIST
200 RURAL ST BOX 503
STILLMAN VALLEY, IL 61084
Phone 815-645-8211
Manager: CHAD HOEFLE, FIRE CHIEF
200 RURAL ST BOX 503
STILLMAN VALLEY, IL 61084
Phone 815-645-8211

Additional Remarks

A52-H1 LGTD TWR 200 FT NE; PLINES 200 FT E; UNLGTD POLE & SIREN 200 FT NW OF PAD.
FOR CD CTC CHICAGO ARTCC AT 630-906-8921.

Instrument Procedures

There are no published instrument procedures at 3IL3.

Some nearby airports with instrument procedures:

KRFD - Chicago/Rockford International Airport (7 nm NE)
KRPJ - Rochelle Municipal Airport/Koritz Field (14 nm S)
KFEP - Albertus Airport (20 nm NW)
C73 - Dixon Municipal Airport-Charles R. Walgreen Field (20 nm SW)
C77 - Poplar Grove Airport (20 nm NE)
 
Loc | Ops | Rwys | IFR | FBO | Links
Com | Nav | Svcs | Stats | Notes
Area around 3IL3 (Stillman Fire Heliport)
 
Road maps at: MapQuest Bing Google
 
Aerial photo
No photo
 
Sectional chart

 
Airport distance calculator
Flying to Stillman Fire Heliport? Find the distance to fly.

From to 3IL3

Sunrise and sunset
Times for 12-Apr-2021
 Local
(UTC-5)
 Zulu
(UTC)
Morning civil twilight05:5310:53
Sunrise06:2211:22
Sunset19:3300:33
Evening civil twilight20:0201:02

Current date and time
Zulu (UTC)  12-Apr-2021 23:46:32
Local (UTC-5)  12-Apr-2021 18:46:32
 
METAR
KRFD 
7nm NE 
122254Z 27011G23KT 10SM FEW045 14/01 A2988 RMK AO2 PK WND 27026/2216 SLP118 T01390006
KRPJ 
14nm S 
122335Z AUTO 27013G17KT 10SM CLR 12/03 A2990 RMK AO2 T01200029
KFEP 
20nm NW 
122335Z AUTO 28014G17KT 10SM CLR 12/01 A2990 RMK AO2 T01170007
TAF
KRFD 
7nm NE 
122104Z 1221/1318 27016G25KT P6SM BKN045 FM130100 25007KT P6SM SKC FM131500 26011G17KT P6SM BKN040
NOTAMs
Click for the latest NOTAMs
NOTAMs are issued by the DoD/FAA and will open in a separate window not controlled by AirNav.

 

 
 

Would you like to see your business listed on this page?

 If your business provides an interesting product or service to pilots, flight crews, aircraft, or users of the Stillman Fire Heliport, you should consider listing it here.  To start the listing process, click on the button below
 
Add a business
 

Other Pages about Stillman Fire Heliport

Update a link
 
Copyright © AirNav, LLC. All rights reserved. Privacy Policy  Contact